sensor_id;sensor_type;location;lat;lon;timestamp;temperature;humidity
21580;DHT22;10951;59.656;9.666;2022-12-10T00:01:31;-7.70;98.70
21580;DHT22;10951;59.656;9.666;2022-12-10T00:03:59;-7.70;98.70
21580;DHT22;10951;59.656;9.666;2022-12-10T00:06:29;-7.70;99.10
21580;DHT22;10951;59.656;9.666;2022-12-10T00:08:58;-7.70;98.90
21580;DHT22;10951;59.656;9.666;2022-12-10T00:11:25;-7.70;98.80
21580;DHT22;10951;59.656;9.666;2022-12-10T00:13:52;-7.70;98.90
21580;DHT22;10951;59.656;9.666;2022-12-10T00:16:22;-7.60;98.70
21580;DHT22;10951;59.656;9.666;2022-12-10T00:18:50;-7.60;98.70
21580;DHT22;10951;59.656;9.666;2022-12-10T00:21:20;-7.60;98.70
21580;DHT22;10951;59.656;9.666;2022-12-10T00:23:48;-7.50;98.60
21580;DHT22;10951;59.656;9.666;2022-12-10T00:26:17;-7.60;98.30
21580;DHT22;10951;59.656;9.666;2022-12-10T00:28:46;-7.60;98.60
21580;DHT22;10951;59.656;9.666;2022-12-10T00:31:15;-7.60;99.00
21580;DHT22;10951;59.656;9.666;2022-12-10T00:33:44;-7.60;98.70
21580;DHT22;10951;59.656;9.666;2022-12-10T00:36:14;-7.50;98.80
21580;DHT22;10951;59.656;9.666;2022-12-10T00:38:42;-7.50;98.90
21580;DHT22;10951;59.656;9.666;2022-12-10T00:41:11;-7.40;98.40
21580;DHT22;10951;59.656;9.666;2022-12-10T00:43:38;-7.40;98.20
21580;DHT22;10951;59.656;9.666;2022-12-10T00:46:05;-7.40;98.00
21580;DHT22;10951;59.656;9.666;2022-12-10T00:48:33;-7.30;98.10
21580;DHT22;10951;59.656;9.666;2022-12-10T00:53:27;-7.30;97.90
21580;DHT22;10951;59.656;9.666;2022-12-10T00:55:55;-7.30;97.80
21580;DHT22;10951;59.656;9.666;2022-12-10T00:58:23;-7.30;97.60
21580;DHT22;10951;59.656;9.666;2022-12-10T01:00:49;-7.30;97.60
21580;DHT22;10951;59.656;9.666;2022-12-10T01:03:16;-7.30;97.40
21580;DHT22;10951;59.656;9.666;2022-12-10T01:05:44;-7.30;97.40
21580;DHT22;10951;59.656;9.666;2022-12-10T01:08:11;-7.40;97.50
21580;DHT22;10951;59.656;9.666;2022-12-10T01:10:38;-7.40;97.60
21580;DHT22;10951;59.656;9.666;2022-12-10T01:13:06;-7.40;97.80
21580;DHT22;10951;59.656;9.666;2022-12-10T01:15:37;-7.30;97.90
21580;DHT22;10951;59.656;9.666;2022-12-10T01:18:05;-7.30;97.50
21580;DHT22;10951;59.656;9.666;2022-12-10T01:20:34;-7.20;97.20
21580;DHT22;10951;59.656;9.666;2022-12-10T01:23:01;-7.20;97.20
21580;DHT22;10951;59.656;9.666;2022-12-10T01:25:30;-7.20;97.10
21580;DHT22;10951;59.656;9.666;2022-12-10T01:27:56;-7.20;97.00
21580;DHT22;10951;59.656;9.666;2022-12-10T01:30:23;-7.20;97.10
21580;DHT22;10951;59.656;9.666;2022-12-10T01:32:50;-7.30;97.10
21580;DHT22;10951;59.656;9.666;2022-12-10T01:35:17;-7.30;97.00
21580;DHT22;10951;59.656;9.666;2022-12-10T01:37:44;-7.40;97.20
21580;DHT22;10951;59.656;9.666;2022-12-10T01:40:11;-7.30;97.20
21580;DHT22;10951;59.656;9.666;2022-12-10T01:42:39;-7.30;97.10
21580;DHT22;10951;59.656;9.666;2022-12-10T01:45:11;-7.30;97.10
21580;DHT22;10951;59.656;9.666;2022-12-10T01:47:38;-7.30;97.00
21580;DHT22;10951;59.656;9.666;2022-12-10T01:50:07;-7.30;97.00
21580;DHT22;10951;59.656;9.666;2022-12-10T01:52:36;-7.30;96.90
21580;DHT22;10951;59.656;9.666;2022-12-10T01:55:34;-7.20;96.90
21580;DHT22;10951;59.656;9.666;2022-12-10T01:57:54;-7.20;96.80
21580;DHT22;10951;59.656;9.666;2022-12-10T02:00:21;-7.20;96.60
21580;DHT22;10951;59.656;9.666;2022-12-10T02:02:59;-7.20;96.60
21580;DHT22;10951;59.656;9.666;2022-12-10T02:05:47;-7.20;96.50
21580;DHT22;10951;59.656;9.666;2022-12-10T02:08:37;-7.20;96.60
21580;DHT22;10951;59.656;9.666;2022-12-10T02:11:17;-7.10;96.60
21580;DHT22;10951;59.656;9.666;2022-12-10T02:14:18;-7.10;96.30
21580;DHT22;10951;59.656;9.666;2022-12-10T02:16:58;-7.10;96.00
21580;DHT22;10951;59.656;9.666;2022-12-10T02:22:04;-7.10;96.10
21580;DHT22;10951;59.656;9.666;2022-12-10T02:24:34;-7.20;95.90
21580;DHT22;10951;59.656;9.666;2022-12-10T02:27:24;-7.10;96.00
21580;DHT22;10951;59.656;9.666;2022-12-10T02:29:53;-7.20;95.80
21580;DHT22;10951;59.656;9.666;2022-12-10T02:32:25;-7.20;95.90
21580;DHT22;10951;59.656;9.666;2022-12-10T02:35:01;-7.20;95.90
21580;DHT22;10951;59.656;9.666;2022-12-10T02:37:38;-7.10;95.70
21580;DHT22;10951;59.656;9.666;2022-12-10T02:40:11;-7.20;95.70
21580;DHT22;10951;59.656;9.666;2022-12-10T02:42:48;-7.20;95.70
21580;DHT22;10951;59.656;9.666;2022-12-10T02:45:17;-7.20;95.70
21580;DHT22;10951;59.656;9.666;2022-12-10T02:47:45;-7.30;95.70
21580;DHT22;10951;59.656;9.666;2022-12-10T02:50:15;-7.30;95.60
21580;DHT22;10951;59.656;9.666;2022-12-10T02:52:42;-7.30;95.80
21580;DHT22;10951;59.656;9.666;2022-12-10T02:55:14;-7.30;95.60
21580;DHT22;10951;59.656;9.666;2022-12-10T03:00:21;-7.40;95.60
21580;DHT22;10951;59.656;9.666;2022-12-10T03:03:15;-7.40;95.80
21580;DHT22;10951;59.656;9.666;2022-12-10T03:08:34;-7.40;95.70
21580;DHT22;10951;59.656;9.666;2022-12-10T03:11:11;-7.50;95.40
21580;DHT22;10951;59.656;9.666;2022-12-10T03:14:05;-7.50;95.40
21580;DHT22;10951;59.656;9.666;2022-12-10T03:16:36;-7.50;95.40
21580;DHT22;10951;59.656;9.666;2022-12-10T03:19:11;-7.60;95.40
21580;DHT22;10951;59.656;9.666;2022-12-10T03:21:40;-7.60;95.40
21580;DHT22;10951;59.656;9.666;2022-12-10T03:24:11;-7.70;95.80
21580;DHT22;10951;59.656;9.666;2022-12-10T03:26:39;-7.70;95.60
21580;DHT22;10951;59.656;9.666;2022-12-10T03:29:12;-7.80;95.90
21580;DHT22;10951;59.656;9.666;2022-12-10T03:31:41;-7.80;95.70
21580;DHT22;10951;59.656;9.666;2022-12-10T03:34:10;-7.80;95.80
21580;DHT22;10951;59.656;9.666;2022-12-10T03:36:38;-7.90;95.80
21580;DHT22;10951;59.656;9.666;2022-12-10T03:39:06;-7.90;95.90
21580;DHT22;10951;59.656;9.666;2022-12-10T03:41:33;-7.90;95.80
21580;DHT22;10951;59.656;9.666;2022-12-10T03:44:00;-7.90;95.80
21580;DHT22;10951;59.656;9.666;2022-12-10T03:46:30;-8.00;95.80
21580;DHT22;10951;59.656;9.666;2022-12-10T03:48:59;-7.90;96.00
21580;DHT22;10951;59.656;9.666;2022-12-10T03:51:27;-7.90;96.20
21580;DHT22;10951;59.656;9.666;2022-12-10T03:53:54;-7.90;96.10
21580;DHT22;10951;59.656;9.666;2022-12-10T03:56:21;-7.80;96.00
21580;DHT22;10951;59.656;9.666;2022-12-10T03:58:49;-7.90;95.80
21580;DHT22;10951;59.656;9.666;2022-12-10T04:01:16;-7.80;95.80
21580;DHT22;10951;59.656;9.666;2022-12-10T04:03:43;-7.90;95.60
21580;DHT22;10951;59.656;9.666;2022-12-10T04:06:15;-7.90;95.80
21580;DHT22;10951;59.656;9.666;2022-12-10T04:08:43;-7.90;95.80
21580;DHT22;10951;59.656;9.666;2022-12-10T04:11:11;-7.90;95.90
21580;DHT22;10951;59.656;9.666;2022-12-10T04:13:39;-7.90;95.70
21580;DHT22;10951;59.656;9.666;2022-12-10T04:16:25;-8.00;95.90
21580;DHT22;10951;59.656;9.666;2022-12-10T04:18:58;-7.90;95.70
21580;DHT22;10951;59.656;9.666;2022-12-10T04:21:28;-8.00;95.50
21580;DHT22;10951;59.656;9.666;2022-12-10T04:24:31;-8.00;95.50
21580;DHT22;10951;59.656;9.666;2022-12-10T04:27:37;-8.00;95.50
21580;DHT22;10951;59.656;9.666;2022-12-10T04:30:07;-8.10;95.60
21580;DHT22;10951;59.656;9.666;2022-12-10T04:32:34;-8.10;95.70
21580;DHT22;10951;59.656;9.666;2022-12-10T04:35:01;-8.10;95.60
21580;DHT22;10951;59.656;9.666;2022-12-10T04:37:29;-8.20;95.80
21580;DHT22;10951;59.656;9.666;2022-12-10T04:39:56;-8.20;95.80
21580;DHT22;10951;59.656;9.666;2022-12-10T04:42:23;-8.20;95.80
21580;DHT22;10951;59.656;9.666;2022-12-10T04:44:50;-8.30;95.70
21580;DHT22;10951;59.656;9.666;2022-12-10T04:47:17;-8.30;95.70
21580;DHT22;10951;59.656;9.666;2022-12-10T04:49:44;-8.30;95.80
21580;DHT22;10951;59.656;9.666;2022-12-10T04:52:13;-8.20;95.80
21580;DHT22;10951;59.656;9.666;2022-12-10T04:54:41;-8.30;95.70
21580;DHT22;10951;59.656;9.666;2022-12-10T04:57:08;-8.30;95.70
21580;DHT22;10951;59.656;9.666;2022-12-10T04:59:36;-8.30;95.80
21580;DHT22;10951;59.656;9.666;2022-12-10T05:02:04;-8.30;95.80
21580;DHT22;10951;59.656;9.666;2022-12-10T05:04:31;-8.30;95.80
21580;DHT22;10951;59.656;9.666;2022-12-10T05:06:59;-8.30;95.80
21580;DHT22;10951;59.656;9.666;2022-12-10T05:09:26;-8.30;95.70
21580;DHT22;10951;59.656;9.666;2022-12-10T05:11:53;-8.40;95.70
21580;DHT22;10951;59.656;9.666;2022-12-10T05:14:20;-8.40;95.70
21580;DHT22;10951;59.656;9.666;2022-12-10T05:16:50;-8.50;95.80
21580;DHT22;10951;59.656;9.666;2022-12-10T05:19:19;-8.50;95.80
21580;DHT22;10951;59.656;9.666;2022-12-10T05:21:46;-8.50;95.80
21580;DHT22;10951;59.656;9.666;2022-12-10T05:24:32;-8.50;95.80
21580;DHT22;10951;59.656;9.666;2022-12-10T05:26:59;-8.60;95.70
21580;DHT22;10951;59.656;9.666;2022-12-10T05:29:26;-8.60;95.80
21580;DHT22;10951;59.656;9.666;2022-12-10T05:31:53;-8.60;95.80
21580;DHT22;10951;59.656;9.666;2022-12-10T05:34:20;-8.60;95.80
21580;DHT22;10951;59.656;9.666;2022-12-10T05:36:47;-8.60;95.70
21580;DHT22;10951;59.656;9.666;2022-12-10T05:39:14;-8.70;95.80
21580;DHT22;10951;59.656;9.666;2022-12-10T05:41:41;-8.70;95.90
21580;DHT22;10951;59.656;9.666;2022-12-10T05:44:11;-8.70;95.80
21580;DHT22;10951;59.656;9.666;2022-12-10T05:46:38;-8.80;95.80
21580;DHT22;10951;59.656;9.666;2022-12-10T05:49:06;-8.70;95.90
21580;DHT22;10951;59.656;9.666;2022-12-10T05:51:35;-8.80;95.90
21580;DHT22;10951;59.656;9.666;2022-12-10T05:54:03;-8.80;95.90
21580;DHT22;10951;59.656;9.666;2022-12-10T05:56:31;-8.80;95.90
21580;DHT22;10951;59.656;9.666;2022-12-10T05:59:00;-8.90;95.90
21580;DHT22;10951;59.656;9.666;2022-12-10T06:01:30;-8.90;96.00
21580;DHT22;10951;59.656;9.666;2022-12-10T06:04:02;-9.00;96.00
21580;DHT22;10951;59.656;9.666;2022-12-10T06:06:32;-8.90;95.90
21580;DHT22;10951;59.656;9.666;2022-12-10T06:08:59;-8.90;96.10
21580;DHT22;10951;59.656;9.666;2022-12-10T06:11:27;-8.90;95.90
21580;DHT22;10951;59.656;9.666;2022-12-10T06:13:56;-9.00;95.90
21580;DHT22;10951;59.656;9.666;2022-12-10T06:16:25;-9.00;95.90
21580;DHT22;10951;59.656;9.666;2022-12-10T06:18:52;-9.10;95.90
21580;DHT22;10951;59.656;9.666;2022-12-10T06:21:20;-9.10;95.90
21580;DHT22;10951;59.656;9.666;2022-12-10T06:23:47;-9.00;95.90
21580;DHT22;10951;59.656;9.666;2022-12-10T06:26:16;-9.10;95.80
21580;DHT22;10951;59.656;9.666;2022-12-10T06:28:45;-9.00;95.80
21580;DHT22;10951;59.656;9.666;2022-12-10T06:31:13;-9.10;95.70
21580;DHT22;10951;59.656;9.666;2022-12-10T06:33:40;-9.20;96.00
21580;DHT22;10951;59.656;9.666;2022-12-10T06:36:09;-9.20;96.20
21580;DHT22;10951;59.656;9.666;2022-12-10T06:38:36;-9.20;96.00
21580;DHT22;10951;59.656;9.666;2022-12-10T06:41:03;-9.20;95.80
21580;DHT22;10951;59.656;9.666;2022-12-10T06:43:31;-9.20;95.80
21580;DHT22;10951;59.656;9.666;2022-12-10T06:45:58;-9.20;95.80
21580;DHT22;10951;59.656;9.666;2022-12-10T06:48:25;-9.20;95.70
21580;DHT22;10951;59.656;9.666;2022-12-10T06:50:52;-9.20;95.60
21580;DHT22;10951;59.656;9.666;2022-12-10T06:53:19;-9.20;95.70
21580;DHT22;10951;59.656;9.666;2022-12-10T06:55:46;-9.20;95.50
21580;DHT22;10951;59.656;9.666;2022-12-10T06:58:13;-9.20;95.50
21580;DHT22;10951;59.656;9.666;2022-12-10T07:00:40;-9.30;95.50
21580;DHT22;10951;59.656;9.666;2022-12-10T07:03:07;-9.30;95.80
21580;DHT22;10951;59.656;9.666;2022-12-10T07:05:34;-9.30;95.70
21580;DHT22;10951;59.656;9.666;2022-12-10T07:08:01;-9.40;95.60
21580;DHT22;10951;59.656;9.666;2022-12-10T07:10:28;-9.40;95.60
21580;DHT22;10951;59.656;9.666;2022-12-10T07:12:54;-9.30;95.60
21580;DHT22;10951;59.656;9.666;2022-12-10T07:15:22;-9.30;95.80
21580;DHT22;10951;59.656;9.666;2022-12-10T07:17:51;-9.30;95.40
21580;DHT22;10951;59.656;9.666;2022-12-10T07:20:18;-9.40;95.40
21580;DHT22;10951;59.656;9.666;2022-12-10T07:22:45;-9.40;95.40
21580;DHT22;10951;59.656;9.666;2022-12-10T07:25:12;-9.40;95.50
21580;DHT22;10951;59.656;9.666;2022-12-10T07:27:39;-9.50;95.60
21580;DHT22;10951;59.656;9.666;2022-12-10T07:30:06;-9.50;95.70
21580;DHT22;10951;59.656;9.666;2022-12-10T07:32:34;-9.60;95.70
21580;DHT22;10951;59.656;9.666;2022-12-10T07:35:01;-9.50;95.70
21580;DHT22;10951;59.656;9.666;2022-12-10T07:37:28;-9.50;95.60
21580;DHT22;10951;59.656;9.666;2022-12-10T07:39:55;-9.60;95.60
21580;DHT22;10951;59.656;9.666;2022-12-10T07:42:22;-9.60;95.70
21580;DHT22;10951;59.656;9.666;2022-12-10T07:44:49;-9.60;95.80
21580;DHT22;10951;59.656;9.666;2022-12-10T07:47:16;-9.70;95.80
21580;DHT22;10951;59.656;9.666;2022-12-10T07:49:45;-9.70;95.80
21580;DHT22;10951;59.656;9.666;2022-12-10T07:52:12;-9.70;95.90
21580;DHT22;10951;59.656;9.666;2022-12-10T07:54:40;-9.80;95.90
21580;DHT22;10951;59.656;9.666;2022-12-10T07:57:07;-9.70;95.90
21580;DHT22;10951;59.656;9.666;2022-12-10T07:59:34;-9.70;95.80
21580;DHT22;10951;59.656;9.666;2022-12-10T08:02:01;-9.80;95.70
21580;DHT22;10951;59.656;9.666;2022-12-10T08:04:34;-9.80;95.60
21580;DHT22;10951;59.656;9.666;2022-12-10T08:07:01;-9.80;95.70
21580;DHT22;10951;59.656;9.666;2022-12-10T08:09:30;-9.80;95.70
21580;DHT22;10951;59.656;9.666;2022-12-10T08:11:57;-9.90;95.70
21580;DHT22;10951;59.656;9.666;2022-12-10T08:14:24;-9.90;95.70
21580;DHT22;10951;59.656;9.666;2022-12-10T08:16:51;-9.80;95.70
21580;DHT22;10951;59.656;9.666;2022-12-10T08:19:18;-9.90;95.50
21580;DHT22;10951;59.656;9.666;2022-12-10T08:21:50;-9.90;95.50
21580;DHT22;10951;59.656;9.666;2022-12-10T08:24:17;-9.90;95.50
21580;DHT22;10951;59.656;9.666;2022-12-10T08:26:44;-9.90;95.50
21580;DHT22;10951;59.656;9.666;2022-12-10T08:29:11;-10.00;95.50
21580;DHT22;10951;59.656;9.666;2022-12-10T08:31:37;-10.00;95.60
21580;DHT22;10951;59.656;9.666;2022-12-10T08:34:12;-10.00;95.60
21580;DHT22;10951;59.656;9.666;2022-12-10T08:36:39;-10.00;95.60
21580;DHT22;10951;59.656;9.666;2022-12-10T08:39:07;-10.00;95.60
21580;DHT22;10951;59.656;9.666;2022-12-10T08:41:34;-10.00;95.50
21580;DHT22;10951;59.656;9.666;2022-12-10T08:44:02;-10.10;95.50
21580;DHT22;10951;59.656;9.666;2022-12-10T08:46:29;-10.00;95.60
21580;DHT22;10951;59.656;9.666;2022-12-10T08:48:57;-10.00;95.60
21580;DHT22;10951;59.656;9.666;2022-12-10T08:51:24;-10.10;95.50
21580;DHT22;10951;59.656;9.666;2022-12-10T08:53:51;-10.00;95.60
21580;DHT22;10951;59.656;9.666;2022-12-10T08:56:18;-10.00;95.60
21580;DHT22;10951;59.656;9.666;2022-12-10T08:58:45;-9.90;95.40
21580;DHT22;10951;59.656;9.666;2022-12-10T09:01:14;-9.90;95.20
21580;DHT22;10951;59.656;9.666;2022-12-10T09:03:41;-9.90;95.20
21580;DHT22;10951;59.656;9.666;2022-12-10T09:06:11;-9.90;95.10
21580;DHT22;10951;59.656;9.666;2022-12-10T09:08:39;-9.90;95.10
21580;DHT22;10951;59.656;9.666;2022-12-10T09:11:08;-9.90;95.00
21580;DHT22;10951;59.656;9.666;2022-12-10T09:13:36;-9.90;95.00
21580;DHT22;10951;59.656;9.666;2022-12-10T09:16:03;-9.90;94.90
21580;DHT22;10951;59.656;9.666;2022-12-10T09:18:30;-9.80;95.00
21580;DHT22;10951;59.656;9.666;2022-12-10T09:20:57;-9.80;94.90
21580;DHT22;10951;59.656;9.666;2022-12-10T09:23:25;-9.80;94.90
21580;DHT22;10951;59.656;9.666;2022-12-10T09:25:52;-9.80;94.70
21580;DHT22;10951;59.656;9.666;2022-12-10T09:28:18;-9.70;94.60
21580;DHT22;10951;59.656;9.666;2022-12-10T09:30:50;-9.70;94.60
21580;DHT22;10951;59.656;9.666;2022-12-10T09:33:21;-9.70;94.60
21580;DHT22;10951;59.656;9.666;2022-12-10T09:35:48;-9.60;94.60
21580;DHT22;10951;59.656;9.666;2022-12-10T09:38:15;-9.60;94.50
21580;DHT22;10951;59.656;9.666;2022-12-10T09:46:10;-9.50;94.40
21580;DHT22;10951;59.656;9.666;2022-12-10T09:53:46;-9.40;94.10
21580;DHT22;10951;59.656;9.666;2022-12-10T09:56:21;-9.40;94.00
21580;DHT22;10951;59.656;9.666;2022-12-10T09:58:49;-9.40;94.00
21580;DHT22;10951;59.656;9.666;2022-12-10T10:01:19;-9.40;94.00
21580;DHT22;10951;59.656;9.666;2022-12-10T10:03:47;-9.40;94.00
21580;DHT22;10951;59.656;9.666;2022-12-10T10:06:17;-9.40;93.90
21580;DHT22;10951;59.656;9.666;2022-12-10T10:08:47;-9.40;93.90
21580;DHT22;10951;59.656;9.666;2022-12-10T10:11:18;-9.40;93.80
21580;DHT22;10951;59.656;9.666;2022-12-10T10:13:58;-9.40;93.80
21580;DHT22;10951;59.656;9.666;2022-12-10T10:19:15;-9.50;94.00
21580;DHT22;10951;59.656;9.666;2022-12-10T10:21:45;-9.50;94.00
21580;DHT22;10951;59.656;9.666;2022-12-10T10:24:21;-9.50;94.00
21580;DHT22;10951;59.656;9.666;2022-12-10T10:26:49;-9.50;93.90
21580;DHT22;10951;59.656;9.666;2022-12-10T10:29:20;-9.50;94.00
21580;DHT22;10951;59.656;9.666;2022-12-10T10:34:39;-9.50;94.10
21580;DHT22;10951;59.656;9.666;2022-12-10T10:37:06;-9.50;94.00
21580;DHT22;10951;59.656;9.666;2022-12-10T10:39:34;-9.60;94.00
21580;DHT22;10951;59.656;9.666;2022-12-10T10:42:09;-9.50;94.10
21580;DHT22;10951;59.656;9.666;2022-12-10T10:44:37;-9.50;94.00
21580;DHT22;10951;59.656;9.666;2022-12-10T10:47:25;-9.50;94.10
21580;DHT22;10951;59.656;9.666;2022-12-10T10:50:00;-9.50;94.10
21580;DHT22;10951;59.656;9.666;2022-12-10T10:52:36;-9.50;94.10
21580;DHT22;10951;59.656;9.666;2022-12-10T10:55:03;-9.50;94.10
21580;DHT22;10951;59.656;9.666;2022-12-10T10:57:36;-9.50;94.10
21580;DHT22;10951;59.656;9.666;2022-12-10T11:00:21;-9.50;94.00
21580;DHT22;10951;59.656;9.666;2022-12-10T11:02:51;-9.50;94.20
21580;DHT22;10951;59.656;9.666;2022-12-10T11:05:26;-9.50;94.00
21580;DHT22;10951;59.656;9.666;2022-12-10T11:08:05;-9.50;94.00
21580;DHT22;10951;59.656;9.666;2022-12-10T11:10:32;-9.50;93.90
21580;DHT22;10951;59.656;9.666;2022-12-10T11:13:06;-9.50;94.00
21580;DHT22;10951;59.656;9.666;2022-12-10T11:15:38;-9.50;94.00
21580;DHT22;10951;59.656;9.666;2022-12-10T11:18:23;-9.40;94.00
21580;DHT22;10951;59.656;9.666;2022-12-10T11:21:18;-9.40;93.90
21580;DHT22;10951;59.656;9.666;2022-12-10T11:23:47;-9.40;93.80
21580;DHT22;10951;59.656;9.666;2022-12-10T11:29:31;-9.30;93.60
21580;DHT22;10951;59.656;9.666;2022-12-10T11:57:03;-9.10;93.50
21580;DHT22;10951;59.656;9.666;2022-12-10T12:02:50;-9.10;93.40
21580;DHT22;10951;59.656;9.666;2022-12-10T12:13:38;-9.20;93.70
21580;DHT22;10951;59.656;9.666;2022-12-10T12:16:37;-9.20;93.60
21580;DHT22;10951;59.656;9.666;2022-12-10T12:19:40;-9.20;93.70
21580;DHT22;10951;59.656;9.666;2022-12-10T12:22:36;-9.30;93.80
21580;DHT22;10951;59.656;9.666;2022-12-10T12:25:17;-9.30;93.80
21580;DHT22;10951;59.656;9.666;2022-12-10T12:27:51;-9.30;93.80
21580;DHT22;10951;59.656;9.666;2022-12-10T12:30:21;-9.20;93.90
21580;DHT22;10951;59.656;9.666;2022-12-10T12:38:15;-9.20;93.90
21580;DHT22;10951;59.656;9.666;2022-12-10T12:43:23;-9.30;93.80
21580;DHT22;10951;59.656;9.666;2022-12-10T12:45:54;-9.30;93.90
21580;DHT22;10951;59.656;9.666;2022-12-10T12:48:40;-9.20;93.90
21580;DHT22;10951;59.656;9.666;2022-12-10T12:51:23;-9.20;93.90
21580;DHT22;10951;59.656;9.666;2022-12-10T12:53:51;-9.20;93.90
21580;DHT22;10951;59.656;9.666;2022-12-10T12:59:49;-9.20;93.90
21580;DHT22;10951;59.656;9.666;2022-12-10T13:02:26;-9.20;93.90
21580;DHT22;10951;59.656;9.666;2022-12-10T13:04:56;-9.20;93.90
21580;DHT22;10951;59.656;9.666;2022-12-10T13:09:52;-9.20;93.90
21580;DHT22;10951;59.656;9.666;2022-12-10T13:15:34;-9.20;93.80
21580;DHT22;10951;59.656;9.666;2022-12-10T13:20:46;-9.10;93.80
21580;DHT22;10951;59.656;9.666;2022-12-10T13:23:35;-9.10;93.70
21580;DHT22;10951;59.656;9.666;2022-12-10T13:26:42;-9.00;93.70
21580;DHT22;10951;59.656;9.666;2022-12-10T13:29:28;-9.00;93.70
21580;DHT22;10951;59.656;9.666;2022-12-10T13:32:03;-9.00;93.60
21580;DHT22;10951;59.656;9.666;2022-12-10T13:34:35;-9.00;93.60
21580;DHT22;10951;59.656;9.666;2022-12-10T13:47:54;-9.00;93.70
21580;DHT22;10951;59.656;9.666;2022-12-10T14:01:38;-9.20;93.80
21580;DHT22;10951;59.656;9.666;2022-12-10T14:06:40;-9.20;93.90
21580;DHT22;10951;59.656;9.666;2022-12-10T14:09:25;-9.30;93.90
21580;DHT22;10951;59.656;9.666;2022-12-10T14:12:07;-9.30;94.00
21580;DHT22;10951;59.656;9.666;2022-12-10T14:14:40;-9.30;94.00
21580;DHT22;10951;59.656;9.666;2022-12-10T14:17:17;-9.30;94.10
21580;DHT22;10951;59.656;9.666;2022-12-10T14:19:46;-9.40;94.20
21580;DHT22;10951;59.656;9.666;2022-12-10T14:22:18;-9.40;94.20
21580;DHT22;10951;59.656;9.666;2022-12-10T14:24:47;-9.40;94.30
21580;DHT22;10951;59.656;9.666;2022-12-10T14:27:17;-9.40;94.30
21580;DHT22;10951;59.656;9.666;2022-12-10T14:29:49;-9.50;94.40
21580;DHT22;10951;59.656;9.666;2022-12-10T14:32:25;-9.40;94.40
21580;DHT22;10951;59.656;9.666;2022-12-10T14:34:58;-9.40;94.30
21580;DHT22;10951;59.656;9.666;2022-12-10T14:37:28;-9.40;94.30
21580;DHT22;10951;59.656;9.666;2022-12-10T14:39:56;-9.50;94.40
21580;DHT22;10951;59.656;9.666;2022-12-10T14:42:23;-9.50;94.40
21580;DHT22;10951;59.656;9.666;2022-12-10T14:45:04;-9.50;94.50
21580;DHT22;10951;59.656;9.666;2022-12-10T14:47:37;-9.60;94.50
21580;DHT22;10951;59.656;9.666;2022-12-10T14:50:13;-9.50;94.50
21580;DHT22;10951;59.656;9.666;2022-12-10T14:52:49;-9.50;94.40
21580;DHT22;10951;59.656;9.666;2022-12-10T14:55:19;-9.50;94.40
21580;DHT22;10951;59.656;9.666;2022-12-10T14:57:53;-9.60;94.40
21580;DHT22;10951;59.656;9.666;2022-12-10T15:00:21;-9.60;94.40
21580;DHT22;10951;59.656;9.666;2022-12-10T15:02:54;-9.60;94.50
21580;DHT22;10951;59.656;9.666;2022-12-10T15:05:29;-9.60;94.50
21580;DHT22;10951;59.656;9.666;2022-12-10T15:08:13;-9.70;94.60
21580;DHT22;10951;59.656;9.666;2022-12-10T15:10:44;-9.70;94.60
21580;DHT22;10951;59.656;9.666;2022-12-10T15:13:19;-9.70;94.60
21580;DHT22;10951;59.656;9.666;2022-12-10T15:15:50;-9.70;94.60
21580;DHT22;10951;59.656;9.666;2022-12-10T15:18:25;-9.70;94.70
21580;DHT22;10951;59.656;9.666;2022-12-10T15:21:19;-9.70;94.70
21580;DHT22;10951;59.656;9.666;2022-12-10T15:23:47;-9.70;94.70
21580;DHT22;10951;59.656;9.666;2022-12-10T15:26:18;-9.70;94.70
21580;DHT22;10951;59.656;9.666;2022-12-10T15:28:47;-9.70;94.80
21580;DHT22;10951;59.656;9.666;2022-12-10T15:33:56;-9.70;94.70
21580;DHT22;10951;59.656;9.666;2022-12-10T15:38:57;-9.80;94.80
21580;DHT22;10951;59.656;9.666;2022-12-10T15:41:53;-9.80;94.80
21580;DHT22;10951;59.656;9.666;2022-12-10T15:44:40;-9.80;94.90
21580;DHT22;10951;59.656;9.666;2022-12-10T15:47:19;-9.80;94.90
21580;DHT22;10951;59.656;9.666;2022-12-10T15:49:47;-9.80;94.90
21580;DHT22;10951;59.656;9.666;2022-12-10T15:52:17;-9.80;94.80
21580;DHT22;10951;59.656;9.666;2022-12-10T15:54:48;-9.80;94.80
21580;DHT22;10951;59.656;9.666;2022-12-10T15:57:18;-9.80;94.80
21580;DHT22;10951;59.656;9.666;2022-12-10T15:59:50;-9.90;94.80
21580;DHT22;10951;59.656;9.666;2022-12-10T16:05:00;-9.90;95.10
21580;DHT22;10951;59.656;9.666;2022-12-10T16:07:27;-9.90;95.10
21580;DHT22;10951;59.656;9.666;2022-12-10T16:09:54;-9.90;95.20
21580;DHT22;10951;59.656;9.666;2022-12-10T16:12:21;-9.90;95.50
21580;DHT22;10951;59.656;9.666;2022-12-10T16:14:53;-9.90;95.20
21580;DHT22;10951;59.656;9.666;2022-12-10T16:17:23;-9.90;95.30
21580;DHT22;10951;59.656;9.666;2022-12-10T16:19:49;-9.90;95.40
21580;DHT22;10951;59.656;9.666;2022-12-10T16:22:16;-9.80;95.20
21580;DHT22;10951;59.656;9.666;2022-12-10T16:24:43;-9.90;95.00
21580;DHT22;10951;59.656;9.666;2022-12-10T16:27:13;-9.90;94.80
21580;DHT22;10951;59.656;9.666;2022-12-10T16:29:42;-9.90;95.00
21580;DHT22;10951;59.656;9.666;2022-12-10T16:32:10;-10.00;94.80
21580;DHT22;10951;59.656;9.666;2022-12-10T16:34:39;-10.00;95.00
21580;DHT22;10951;59.656;9.666;2022-12-10T16:37:06;-9.90;95.10
21580;DHT22;10951;59.656;9.666;2022-12-10T16:39:33;-9.90;94.90
21580;DHT22;10951;59.656;9.666;2022-12-10T16:42:00;-9.90;94.90
21580;DHT22;10951;59.656;9.666;2022-12-10T16:44:27;-9.90;94.90
21580;DHT22;10951;59.656;9.666;2022-12-10T16:46:54;-10.00;95.10
21580;DHT22;10951;59.656;9.666;2022-12-10T16:49:21;-10.00;95.10
21580;DHT22;10951;59.656;9.666;2022-12-10T16:51:48;-10.00;95.00
21580;DHT22;10951;59.656;9.666;2022-12-10T16:54:15;-10.00;95.00
21580;DHT22;10951;59.656;9.666;2022-12-10T16:56:42;-10.00;94.70
21580;DHT22;10951;59.656;9.666;2022-12-10T16:59:10;-10.00;95.10
21580;DHT22;10951;59.656;9.666;2022-12-10T17:01:37;-10.00;95.10
21580;DHT22;10951;59.656;9.666;2022-12-10T17:04:04;-10.00;95.20
21580;DHT22;10951;59.656;9.666;2022-12-10T17:06:31;-10.00;95.20
21580;DHT22;10951;59.656;9.666;2022-12-10T17:08:58;-10.00;95.10
21580;DHT22;10951;59.656;9.666;2022-12-10T17:11:28;-10.00;95.00
21580;DHT22;10951;59.656;9.666;2022-12-10T17:14:26;-10.00;94.80
21580;DHT22;10951;59.656;9.666;2022-12-10T17:16:55;-10.00;94.70
21580;DHT22;10951;59.656;9.666;2022-12-10T17:19:26;-10.00;94.60
21580;DHT22;10951;59.656;9.666;2022-12-10T17:21:54;-10.10;94.50
21580;DHT22;10951;59.656;9.666;2022-12-10T17:24:21;-10.20;94.60
21580;DHT22;10951;59.656;9.666;2022-12-10T17:26:48;-10.20;94.70
21580;DHT22;10951;59.656;9.666;2022-12-10T17:29:18;-10.30;94.70
21580;DHT22;10951;59.656;9.666;2022-12-10T17:31:46;-10.40;94.80
21580;DHT22;10951;59.656;9.666;2022-12-10T17:34:14;-10.40;94.90
21580;DHT22;10951;59.656;9.666;2022-12-10T17:36:43;-10.40;95.00
21580;DHT22;10951;59.656;9.666;2022-12-10T17:39:15;-10.50;94.90
21580;DHT22;10951;59.656;9.666;2022-12-10T17:41:48;-10.50;95.00
21580;DHT22;10951;59.656;9.666;2022-12-10T17:44:16;-10.50;95.00
21580;DHT22;10951;59.656;9.666;2022-12-10T17:46:43;-10.60;95.40
21580;DHT22;10951;59.656;9.666;2022-12-10T17:49:15;-10.60;95.20
21580;DHT22;10951;59.656;9.666;2022-12-10T17:51:43;-10.60;95.30